createdAt,value
2017-05-23T00:00:20.708Z,19.17
2017-05-23T00:00:51.992Z,19.11
2017-05-23T00:01:54.559Z,19.09
2017-05-23T00:02:16.463Z,19.09
2017-05-23T00:02:43.221Z,19.04
2017-05-23T00:03:09.570Z,19.02
2017-05-23T00:03:36.133Z,19.02
2017-05-23T00:04:05.435Z,18.99
2017-05-23T00:04:27.490Z,19.08
2017-05-23T00:04:56.647Z,19.07
2017-05-23T00:05:21.448Z,19.06
2017-05-23T00:05:49.689Z,19.04
2017-05-23T00:07:23.536Z,18.81
2017-05-23T00:07:50.035Z,18.79
2017-05-23T00:08:11.794Z,18.82
2017-05-23T00:08:33.588Z,18.80
2017-05-23T00:09:00.097Z,18.82
2017-05-23T00:09:22.173Z,18.83
2017-05-23T00:09:48.760Z,18.96
2017-05-23T00:10:10.662Z,18.99
2017-05-23T00:11:04.725Z,18.95
2017-05-23T00:11:26.606Z,18.99
2017-05-23T00:11:53.531Z,19.08
2017-05-23T00:12:18.504Z,19.15
2017-05-23T00:13:17.615Z,19.27
2017-05-23T00:13:40.073Z,19.24
2017-05-23T00:14:05.810Z,19.20
2017-05-23T00:14:37.667Z,19.29
2017-05-23T00:15:04.324Z,19.33
2017-05-23T00:16:07.303Z,19.08
2017-05-23T00:17:26.849Z,19.27
2017-05-23T00:18:54.560Z,19.36
2017-05-23T00:19:48.196Z,19.47
2017-05-23T00:20:20.605Z,19.53
2017-05-23T00:20:43.093Z,19.46
2017-05-23T00:21:18.890Z,19.28
2017-05-23T00:21:43.300Z,19.18
2017-05-23T00:22:09.959Z,19.08
2017-05-23T00:22:39.615Z,19.04
2017-05-23T00:23:04.071Z,19.11
2017-05-23T00:23:30.614Z,19.22
2017-05-23T00:24:22.974Z,19.32
2017-05-23T00:24:49.601Z,19.18
2017-05-23T00:25:11.465Z,19.08
2017-05-23T00:25:38.064Z,18.98
2017-05-23T00:26:09.398Z,19.00
2017-05-23T00:26:43.485Z,18.95
2017-05-23T00:27:14.874Z,18.85
2017-05-23T00:28:10.986Z,18.84
2017-05-23T00:28:33.079Z,18.82
2017-05-23T00:29:02.373Z,18.75
2017-05-23T00:29:31.696Z,18.76
2017-05-23T00:29:56.795Z,18.70
2017-05-23T00:30:24.474Z,18.72
2017-05-23T00:31:20.726Z,18.65
2017-05-23T00:31:50.552Z,18.70
2017-05-23T00:32:43.903Z,18.75
2017-05-23T00:33:13.120Z,18.72
2017-05-23T00:33:39.845Z,18.71
2017-05-23T00:34:02.894Z,18.75
2017-05-23T00:34:29.470Z,18.68
2017-05-23T00:35:23.165Z,18.80
2017-05-23T00:35:44.998Z,18.82
2017-05-23T00:36:06.988Z,18.89
2017-05-23T00:36:33.388Z,19.05
2017-05-23T00:37:00.053Z,19.12
2017-05-23T00:37:29.800Z,19.04
2017-05-23T00:38:27.767Z,18.86
2017-05-23T00:39:06.512Z,18.79
2017-05-23T00:39:33.784Z,18.73
2017-05-23T00:39:55.674Z,18.69
2017-05-23T00:40:24.563Z,18.72
2017-05-23T00:41:20.664Z,18.69
2017-05-23T00:42:22.151Z,18.71
2017-05-23T00:42:48.738Z,18.83
2017-05-23T00:43:20.140Z,18.80
2017-05-23T00:44:12.028Z,18.97
2017-05-23T00:44:43.390Z,18.94
2017-05-23T00:45:39.150Z,19.08
2017-05-23T00:46:32.476Z,18.98
2017-05-23T00:47:03.974Z,18.86
2017-05-23T00:48:06.801Z,18.66
2017-05-23T00:49:15.170Z,18.50
2017-05-23T00:49:37.521Z,18.46
2017-05-23T00:50:10.189Z,18.43
2017-05-23T00:50:41.300Z,18.44
2017-05-23T00:51:03.176Z,18.45
2017-05-23T00:52:01.995Z,18.36
2017-05-23T00:52:31.438Z,18.42
2017-05-23T00:52:53.341Z,18.44
2017-05-23T00:54:16.238Z,18.35
2017-05-23T00:54:45.813Z,18.39
2017-05-23T00:55:22.637Z,18.52
2017-05-23T00:55:45.270Z,18.66
2017-05-23T00:56:07.563Z,18.66
2017-05-23T00:57:08.169Z,18.64
2017-05-23T00:57:39.776Z,18.76
2017-05-23T00:58:08.979Z,18.82
2017-05-23T00:59:04.888Z,18.70
2017-05-23T00:59:26.885Z,18.63
2017-05-23T00:59:56.702Z,18.59
2017-05-23T01:00:23.264Z,18.64
2017-05-23T01:00:45.334Z,18.69
2017-05-23T01:01:16.554Z,18.65
2017-05-23T01:01:48.837Z,18.67
2017-05-23T01:02:54.367Z,18.55
2017-05-23T01:03:25.776Z,18.56
2017-05-23T01:04:29.759Z,18.54
2017-05-23T01:05:06.795Z,18.51
2017-05-23T01:05:29.194Z,18.54
2017-05-23T01:07:01.091Z,18.59
2017-05-23T01:07:23.987Z,18.58
2017-05-23T01:07:45.791Z,18.53
2017-05-23T01:08:17.087Z,18.55
2017-05-23T01:09:16.576Z,18.76
2017-05-23T01:09:43.231Z,18.84
2017-05-23T01:11:12.331Z,18.74
2017-05-23T01:11:44.051Z,18.75
2017-05-23T01:12:10.672Z,18.84
2017-05-23T01:12:41.821Z,18.81
2017-05-23T01:13:46.091Z,18.84
2017-05-23T01:14:45.308Z,18.76
2017-05-23T01:15:12.203Z,18.74
2017-05-23T01:17:17.281Z,18.58
2017-05-23T01:17:44.358Z,18.54
2017-05-23T01:18:16.518Z,18.59
2017-05-23T01:18:41.386Z,18.66
2017-05-23T01:19:05.999Z,18.67
2017-05-23T01:19:30.953Z,18.66
2017-05-23T01:20:00.435Z,18.62
2017-05-23T01:20:27.751Z,18.48
2017-05-23T01:20:54.667Z,18.43
2017-05-23T01:21:32.063Z,18.54
2017-05-23T01:22:02.328Z,18.68
2017-05-23T01:22:58.714Z,18.67
2017-05-23T01:23:30.435Z,18.63
2017-05-23T01:23:52.438Z,18.60
2017-05-23T01:24:14.151Z,18.60
2017-05-23T01:25:50.581Z,18.42
2017-05-23T01:26:12.335Z,18.52
2017-05-23T01:26:34.077Z,18.58
2017-05-23T01:27:01.123Z,18.59
2017-05-23T01:27:25.940Z,18.54
2017-05-23T01:27:58.841Z,18.56
2017-05-23T01:30:16.759Z,18.70
2017-05-23T01:30:38.460Z,18.70
2017-05-23T01:31:05.721Z,18.68
2017-05-23T01:31:30.574Z,18.71
2017-05-23T01:31:57.947Z,18.67
2017-05-23T01:32:31.859Z,18.64
2017-05-23T01:33:10.275Z,18.84
2017-05-23T01:33:36.652Z,18.89
2017-05-23T01:34:03.330Z,18.90
2017-05-23T01:34:59.202Z,18.84
2017-05-23T01:35:26.606Z,18.86
2017-05-23T01:36:21.214Z,18.92
2017-05-23T01:36:47.795Z,18.91
2017-05-23T01:37:59.777Z,18.74
2017-05-23T01:38:35.224Z,18.61
2017-05-23T01:39:09.179Z,18.68
2017-05-23T01:40:46.383Z,18.66
2017-05-23T01:41:12.703Z,18.69
2017-05-23T01:41:37.107Z,18.70
2017-05-23T01:42:06.435Z,18.71
2017-05-23T01:42:31.805Z,18.70
2017-05-23T01:43:08.725Z,18.64
2017-05-23T01:44:10.482Z,18.75
2017-05-23T01:44:40.215Z,18.81
2017-05-23T01:46:54.493Z,18.89
2017-05-23T01:47:17.342Z,18.93
2017-05-23T01:47:44.429Z,18.99
2017-05-23T01:48:06.372Z,18.93
2017-05-23T01:48:28.090Z,18.89
2017-05-23T01:49:20.208Z,19.00
2017-05-23T01:50:21.153Z,18.89
2017-05-23T01:50:50.781Z,18.78
2017-05-23T01:51:46.448Z,18.66
2017-05-23T01:52:16.157Z,18.69
2017-05-23T01:52:38.148Z,18.70
2017-05-23T01:53:13.844Z,18.72
2017-05-23T01:54:53.051Z,19.02
2017-05-23T01:55:25.239Z,19.00
2017-05-23T01:55:50.077Z,18.97
2017-05-23T01:56:16.388Z,18.88
2017-05-23T01:56:41.125Z,18.81
2017-05-23T01:57:07.630Z,18.75
2017-05-23T01:57:55.840Z,18.88
2017-05-23T01:58:17.570Z,18.95
2017-05-23T01:58:51.627Z,18.98
2017-05-23T01:59:30.075Z,19.04
2017-05-23T01:59:51.897Z,18.91
2017-05-23T02:00:22.993Z,18.84
2017-05-23T02:00:55.180Z,18.80
2017-05-23T02:01:24.524Z,18.80
2017-05-23T02:02:54.025Z,18.75
2017-05-23T02:03:23.738Z,18.71
2017-05-23T02:04:23.147Z,18.69
2017-05-23T02:04:52.483Z,18.69
2017-05-23T02:05:21.855Z,18.71
2017-05-23T02:05:53.202Z,18.71
2017-05-23T02:06:49.303Z,18.70
2017-05-23T02:07:57.055Z,18.61
2017-05-23T02:08:26.950Z,18.58
2017-05-23T02:09:33.150Z,18.63
2017-05-23T02:09:57.929Z,18.58
2017-05-23T02:11:25.312Z,18.57
2017-05-23T02:11:54.509Z,18.60
2017-05-23T02:12:21.345Z,18.64
2017-05-23T02:12:48.609Z,18.66
2017-05-23T02:13:10.365Z,18.68
2017-05-23T02:14:12.678Z,18.67
2017-05-23T02:14:39.241Z,18.63
2017-05-23T02:15:01.313Z,18.65
2017-05-23T02:17:20.671Z,18.66
2017-05-23T02:17:42.396Z,18.64
2017-05-23T02:18:42.932Z,18.88
2017-05-23T02:19:04.699Z,18.92
2017-05-23T02:19:29.440Z,18.92
2017-05-23T02:19:53.773Z,19.02
2017-05-23T02:20:22.447Z,19.02
2017-05-23T02:21:21.826Z,18.80
2017-05-23T02:21:46.868Z,18.76
2017-05-23T02:22:43.612Z,18.64
2017-05-23T02:23:13.585Z,18.56
2017-05-23T02:25:10.785Z,18.45
2017-05-23T02:25:32.510Z,18.45
2017-05-23T02:25:54.864Z,18.52
2017-05-23T02:26:47.871Z,18.67
2017-05-23T02:27:41.742Z,18.73
2017-05-23T02:28:11.045Z,18.67
2017-05-23T02:28:40.927Z,18.60
2017-05-23T02:29:02.629Z,18.54
2017-05-23T02:29:32.135Z,18.50
2017-05-23T02:30:06.043Z,18.43
2017-05-23T02:30:37.107Z,18.44
2017-05-23T02:31:01.053Z,18.48
2017-05-23T02:31:27.745Z,18.45
2017-05-23T02:31:57.389Z,18.41
2017-05-23T02:32:23.924Z,18.48
2017-05-23T02:32:46.068Z,18.53
2017-05-23T02:33:42.568Z,18.49
2017-05-23T02:34:09.355Z,18.46
2017-05-23T02:34:38.517Z,18.38
2017-05-23T02:35:26.968Z,18.39
2017-05-23T02:35:53.628Z,18.42
2017-05-23T02:36:20.880Z,18.42
2017-05-23T02:36:46.072Z,18.45
2017-05-23T02:37:41.808Z,18.46
2017-05-23T02:38:03.533Z,18.48
2017-05-23T02:38:25.425Z,18.47
2017-05-23T02:38:47.209Z,18.45
2017-05-23T02:39:09.124Z,18.49
2017-05-23T02:39:35.913Z,18.49
2017-05-23T02:40:05.923Z,18.50
2017-05-23T02:40:35.454Z,18.57
2017-05-23T02:41:06.801Z,18.57
2017-05-23T02:41:28.781Z,18.61
2017-05-23T02:42:00.015Z,18.56
2017-05-23T02:42:25.063Z,18.55
2017-05-23T02:42:54.490Z,18.55
2017-05-23T02:43:18.942Z,18.52
2017-05-23T02:44:17.094Z,18.45
2017-05-23T02:46:24.290Z,18.40
2017-05-23T02:46:56.093Z,18.34
2017-05-23T02:47:57.887Z,18.23
2017-05-23T02:48:20.288Z,18.19
2017-05-23T02:48:47.704Z,18.20
2017-05-23T02:49:11.999Z,18.18
2017-05-23T02:49:37.229Z,18.11
2017-05-23T02:49:59.345Z,18.13
2017-05-23T02:50:26.222Z,18.07
2017-05-23T02:50:56.201Z,18.05
2017-05-23T02:51:18.318Z,18.06
2017-05-23T02:51:48.002Z,18.13
2017-05-23T02:52:39.694Z,18.20
2017-05-23T02:53:06.934Z,18.36
2017-05-23T02:53:29.013Z,18.37
2017-05-23T02:53:58.881Z,18.27
2017-05-23T02:54:54.952Z,18.29
2017-05-23T02:55:16.806Z,18.32
2017-05-23T02:55:50.888Z,18.28
2017-05-23T02:56:12.672Z,18.30
2017-05-23T02:56:34.378Z,18.32
2017-05-23T02:56:59.025Z,18.23
2017-05-23T02:57:33.377Z,18.31
2017-05-23T02:58:04.445Z,18.31
2017-05-23T02:58:31.285Z,18.34
2017-05-23T02:59:36.609Z,18.18
2017-05-23T02:59:59.018Z,18.16
2017-05-23T03:00:23.648Z,18.12
2017-05-23T03:01:22.528Z,18.13
2017-05-23T03:01:47.259Z,18.08
2017-05-23T03:02:09.900Z,18.11
2017-05-23T03:03:31.213Z,18.13
2017-05-23T03:04:02.735Z,18.18
2017-05-23T03:04:30.558Z,18.22
2017-05-23T03:05:29.785Z,18.27
2017-05-23T03:06:25.966Z,18.34
2017-05-23T03:06:50.694Z,18.34
2017-05-23T03:07:15.610Z,18.28
2017-05-23T03:07:45.009Z,18.26
2017-05-23T03:08:14.729Z,18.19
2017-05-23T03:08:39.643Z,18.18
2017-05-23T03:09:32.906Z,18.09
2017-05-23T03:09:54.805Z,18.05
2017-05-23T03:10:16.835Z,18.03
2017-05-23T03:10:50.896Z,18.04
2017-05-23T03:11:43.920Z,17.95
2017-05-23T03:12:05.625Z,17.95
2017-05-23T03:12:27.350Z,17.94
2017-05-23T03:12:49.294Z,17.97
2017-05-23T03:13:11.313Z,17.99
2017-05-23T03:13:39.221Z,18.01
2017-05-23T03:14:34.910Z,18.08
2017-05-23T03:15:04.290Z,17.99
2017-05-23T03:15:26.094Z,17.94
2017-05-23T03:15:58.535Z,18.04
2017-05-23T03:16:26.665Z,17.97
2017-05-23T03:16:53.827Z,18.01
2017-05-23T03:17:22.913Z,18.04
2017-05-23T03:18:26.515Z,17.96
2017-05-23T03:19:14.547Z,17.86
2017-05-23T03:20:11.187Z,17.82
2017-05-23T03:20:35.554Z,17.81
2017-05-23T03:20:57.596Z,17.85
2017-05-23T03:21:19.599Z,17.90
2017-05-23T03:21:41.568Z,17.84
2017-05-23T03:22:03.338Z,17.85
2017-05-23T03:23:05.961Z,17.84
2017-05-23T03:23:37.254Z,17.78
2017-05-23T03:24:04.025Z,17.77
2017-05-23T03:24:36.239Z,17.76
2017-05-23T03:25:07.500Z,17.72
2017-05-23T03:25:32.733Z,17.72
2017-05-23T03:26:01.760Z,17.72
2017-05-23T03:26:29.454Z,17.75
2017-05-23T03:27:23.339Z,17.89
2017-05-23T03:27:45.919Z,17.88
2017-05-23T03:28:13.861Z,17.87
2017-05-23T03:28:45.180Z,17.88
2017-05-23T03:30:33.374Z,17.83
2017-05-23T03:31:11.771Z,17.82
2017-05-23T03:31:33.494Z,17.78
2017-05-23T03:32:34.178Z,17.72
2017-05-23T03:33:00.882Z,17.68
2017-05-23T03:33:35.022Z,17.67
2017-05-23T03:33:56.816Z,17.64
2017-05-23T03:34:23.412Z,17.72
2017-05-23T03:34:48.061Z,17.78
2017-05-23T03:35:17.390Z,17.84
2017-05-23T03:36:08.330Z,17.79
2017-05-23T03:37:37.231Z,17.83
2017-05-23T03:37:59.107Z,17.93
2017-05-23T03:38:29.002Z,17.97
2017-05-23T03:39:25.251Z,17.99
2017-05-23T03:39:51.926Z,17.98
2017-05-23T03:40:16.741Z,17.94
2017-05-23T03:40:43.124Z,17.97
2017-05-23T03:41:05.274Z,18.05
2017-05-23T03:41:29.927Z,18.10
2017-05-23T03:41:51.771Z,18.06
2017-05-23T03:42:16.018Z,17.97
2017-05-23T03:42:48.346Z,17.90
2017-05-23T03:43:10.127Z,17.92
2017-05-23T03:43:32.142Z,17.91
2017-05-23T03:44:30.120Z,18.00
2017-05-23T03:44:52.181Z,17.98
2017-05-23T03:45:18.776Z,17.91
2017-05-23T03:45:40.549Z,17.97
2017-05-23T03:46:02.719Z,17.96
2017-05-23T03:46:29.841Z,18.04
2017-05-23T03:46:51.716Z,18.04
2017-05-23T03:47:13.687Z,18.08
2017-05-23T03:47:35.749Z,18.01
2017-05-23T03:47:57.529Z,17.94
2017-05-23T03:48:21.871Z,17.90
2017-05-23T03:48:43.772Z,17.89
2017-05-23T03:49:05.568Z,17.95
2017-05-23T03:49:59.065Z,17.95
2017-05-23T03:50:21.157Z,18.00
2017-05-23T03:50:47.875Z,17.91
2017-05-23T03:51:15.085Z,17.93
2017-05-23T03:51:48.996Z,18.02
2017-05-23T03:52:11.332Z,17.99
2017-05-23T03:52:37.928Z,17.92
2017-05-23T03:53:35.876Z,17.83
2017-05-23T03:53:57.994Z,17.80
2017-05-23T03:54:46.305Z,17.77
2017-05-23T03:55:08.417Z,17.72
2017-05-23T03:55:34.882Z,17.70
2017-05-23T03:55:56.703Z,17.65
2017-05-23T03:56:25.986Z,17.61
2017-05-23T03:56:51.098Z,17.67
2017-05-23T03:57:22.295Z,17.67
2017-05-23T03:59:42.378Z,17.64
2017-05-23T04:00:09.079Z,17.65
2017-05-23T04:00:30.852Z,17.64
2017-05-23T04:00:57.157Z,17.66
2017-05-23T04:01:53.282Z,17.63
2017-05-23T04:02:17.917Z,17.60
2017-05-23T04:02:44.504Z,17.62
2017-05-23T04:03:13.887Z,17.76
2017-05-23T04:03:45.362Z,17.80
2017-05-23T04:04:39.608Z,17.88
2017-05-23T04:05:05.921Z,17.91
2017-05-23T04:06:28.532Z,17.98
2017-05-23T04:07:00.909Z,17.99
2017-05-23T04:07:27.441Z,18.02
2017-05-23T04:08:31.663Z,17.96
2017-05-23T04:09:28.109Z,17.90
2017-05-23T04:09:49.891Z,17.86
2017-05-23T04:10:16.461Z,17.95
2017-05-23T04:10:38.243Z,17.98
2017-05-23T04:11:09.303Z,18.11
2017-05-23T04:12:11.826Z,18.18
2017-05-23T04:12:36.410Z,18.17
2017-05-23T04:12:58.602Z,18.11
2017-05-23T04:13:28.158Z,18.06
2017-05-23T04:13:54.680Z,18.03
2017-05-23T04:14:19.616Z,18.00
2017-05-23T04:15:58.737Z,17.78
2017-05-23T04:16:20.568Z,17.78
2017-05-23T04:16:49.951Z,17.87
2017-05-23T04:17:11.752Z,17.86
2017-05-23T04:18:04.797Z,17.78
2017-05-23T04:18:29.218Z,17.78
2017-05-23T04:18:51.289Z,17.72
2017-05-23T04:19:17.979Z,17.73
2017-05-23T04:19:39.774Z,17.75
2017-05-23T04:20:01.479Z,17.77
2017-05-23T04:20:23.284Z,17.77
2017-05-23T04:20:45.428Z,17.73
2017-05-23T04:21:08.225Z,17.72
2017-05-23T04:21:35.329Z,17.76
2017-05-23T04:21:57.199Z,17.75
2017-05-23T04:22:21.715Z,17.75
2017-05-23T04:22:54.547Z,17.72
2017-05-23T04:23:16.826Z,17.72
2017-05-23T04:24:18.234Z,17.79
2017-05-23T04:24:40.014Z,17.78
2017-05-23T04:25:09.607Z,17.72
2017-05-23T04:25:31.411Z,17.67
2017-05-23T04:26:52.566Z,17.68
2017-05-23T04:27:19.446Z,17.79
2017-05-23T04:27:48.849Z,17.89
2017-05-23T04:28:50.139Z,17.92
2017-05-23T04:29:15.374Z,17.97
2017-05-23T04:30:07.490Z,18.05
2017-05-23T04:30:36.884Z,17.96
2017-05-23T04:30:58.920Z,17.93
2017-05-23T04:31:25.704Z,17.89
2017-05-23T04:31:52.602Z,17.97
2017-05-23T04:32:20.264Z,18.01
2017-05-23T04:33:13.464Z,17.99
2017-05-23T04:33:35.108Z,18.01
2017-05-23T04:33:56.826Z,17.93
2017-05-23T04:34:21.407Z,17.95
2017-05-23T04:34:43.715Z,17.98
2017-05-23T04:35:05.588Z,17.97
2017-05-23T04:35:27.492Z,17.99
2017-05-23T04:35:49.533Z,18.05
2017-05-23T04:36:19.481Z,18.07
2017-05-23T04:36:51.071Z,18.05
2017-05-23T04:37:12.788Z,18.05
2017-05-23T04:38:35.519Z,18.07
2017-05-23T04:38:57.514Z,18.14
2017-05-23T04:39:28.956Z,18.25
2017-05-23T04:40:03.255Z,18.23
2017-05-23T04:40:25.025Z,18.32
2017-05-23T04:40:46.805Z,18.32
2017-05-23T04:41:13.777Z,18.29
2017-05-23T04:41:40.966Z,18.28
2017-05-23T04:42:02.689Z,18.25
2017-05-23T04:42:24.446Z,18.24
2017-05-23T04:42:49.115Z,18.22
2017-05-23T04:43:37.407Z,18.19
2017-05-23T04:44:06.745Z,18.23
2017-05-23T04:44:28.704Z,18.24
2017-05-23T04:44:50.825Z,18.23
2017-05-23T04:45:20.251Z,18.17
2017-05-23T04:46:22.702Z,18.20
2017-05-23T04:46:44.536Z,18.22
2017-05-23T04:47:06.271Z,18.22
2017-05-23T04:47:28.262Z,18.26
2017-05-23T04:47:55.021Z,18.31
2017-05-23T04:48:16.829Z,18.32
2017-05-23T04:49:40.393Z,18.34
2017-05-23T04:50:09.683Z,18.37
2017-05-23T04:50:41.060Z,18.29
2017-05-23T04:51:38.215Z,18.31
2017-05-23T04:53:13.140Z,18.24
2017-05-23T04:53:34.855Z,18.28
2017-05-23T04:54:04.324Z,18.28
2017-05-23T04:54:26.729Z,18.32
2017-05-23T04:54:48.720Z,18.36
2017-05-23T04:55:54.300Z,18.31
2017-05-23T04:56:53.247Z,18.22
2017-05-23T04:57:14.950Z,18.19
2017-05-23T04:57:41.594Z,18.17
2017-05-23T04:58:06.676Z,18.20
2017-05-23T04:59:08.437Z,18.21
2017-05-23T04:59:32.745Z,18.22
2017-05-23T04:59:55.018Z,18.22
2017-05-23T05:00:19.437Z,18.29
2017-05-23T05:01:15.968Z,18.29
2017-05-23T05:02:22.942Z,18.42
2017-05-23T05:04:28.026Z,18.50
2017-05-23T05:30:15.132Z,18.67
2017-05-23T05:33:00.463Z,18.76
2017-05-23T05:51:19.391Z,19.09
2017-05-23T05:51:53.519Z,19.13
2017-05-23T05:53:24.413Z,19.12
2017-05-23T05:58:24.777Z,19.20
2017-05-23T05:59:54.226Z,19.24
2017-05-23T06:00:16.013Z,19.23
2017-05-23T06:01:07.122Z,19.29
2017-05-23T06:01:28.836Z,19.29
2017-05-23T06:02:17.121Z,19.38
2017-05-23T06:02:38.864Z,19.35
2017-05-23T06:03:30.060Z,19.31
2017-05-23T06:03:56.626Z,19.22
2017-05-23T06:05:27.647Z,19.21
2017-05-23T06:06:08.572Z,19.16
2017-05-23T06:06:45.183Z,19.17
2017-05-23T06:07:34.087Z,19.11
2017-05-23T06:08:37.485Z,19.09
2017-05-23T06:09:05.337Z,19.16
2017-05-23T06:09:58.520Z,19.32
2017-05-23T06:10:51.586Z,19.41
2017-05-23T06:11:13.311Z,19.44
2017-05-23T06:11:37.962Z,19.46
2017-05-23T06:13:07.007Z,19.18
2017-05-23T06:13:34.721Z,19.20
2017-05-23T06:14:06.888Z,19.13
2017-05-23T06:14:28.588Z,19.12
2017-05-23T06:15:33.883Z,19.06
2017-05-23T06:16:03.125Z,19.08
2017-05-23T06:17:10.446Z,19.05
2017-05-23T06:17:36.984Z,19.11
2017-05-23T06:18:43.587Z,19.33
2017-05-23T06:20:22.705Z,19.48
2017-05-23T06:20:44.526Z,19.39
2017-05-23T06:21:08.974Z,19.31
2017-05-23T06:21:31.216Z,19.29
2017-05-23T06:22:01.250Z,19.29
2017-05-23T06:22:30.946Z,19.30
2017-05-23T06:24:28.562Z,19.35
2017-05-23T06:25:00.124Z,19.37
2017-05-23T06:25:26.838Z,19.35
2017-05-23T06:27:01.010Z,19.45
2017-05-23T06:27:22.841Z,19.46
2017-05-23T06:29:54.562Z,19.43
2017-05-23T06:30:53.133Z,19.44
2017-05-23T06:31:19.671Z,19.43
2017-05-23T06:31:41.434Z,19.47
2017-05-23T06:32:03.202Z,19.52
2017-05-23T06:32:29.861Z,19.51
2017-05-23T06:33:30.295Z,19.54
2017-05-23T06:33:53.077Z,19.54
2017-05-23T06:34:20.585Z,19.49
2017-05-23T06:36:19.925Z,19.33
2017-05-23T06:36:45.559Z,19.33
2017-05-23T06:37:49.124Z,19.34
2017-05-23T06:38:12.923Z,19.40
2017-05-23T06:38:37.339Z,19.43
2017-05-23T06:39:03.868Z,19.32
2017-05-23T06:39:26.214Z,19.31
2017-05-23T06:39:55.956Z,19.29
2017-05-23T06:40:17.665Z,19.27
2017-05-23T06:42:07.968Z,19.41
2017-05-23T06:43:37.813Z,19.43
2017-05-23T06:44:07.231Z,19.47
2017-05-23T06:44:58.354Z,19.47
2017-05-23T06:45:20.097Z,19.45
2017-05-23T06:45:46.653Z,19.50
2017-05-23T06:47:04.017Z,19.38
2017-05-23T06:47:40.871Z,19.32
2017-05-23T06:48:07.928Z,19.31
2017-05-23T06:48:34.218Z,19.38
2017-05-23T06:48:56.310Z,19.37
2017-05-23T06:49:30.475Z,19.40
2017-05-23T06:51:38.223Z,19.33
2017-05-23T06:52:09.522Z,19.42
2017-05-23T06:52:43.393Z,19.33
2017-05-23T06:53:09.876Z,19.39
2017-05-23T06:53:36.460Z,19.45
2017-05-23T06:54:07.790Z,19.44
2017-05-23T06:54:29.499Z,19.50
2017-05-23T06:55:22.831Z,19.64
2017-05-23T06:57:31.746Z,19.52
2017-05-23T06:57:58.201Z,19.55
2017-05-23T06:58:19.963Z,19.60
2017-05-23T06:59:26.864Z,19.76
2017-05-23T06:59:58.143Z,19.80
2017-05-23T07:00:19.867Z,19.84
2017-05-23T07:01:20.248Z,19.82
2017-05-23T07:01:47.114Z,19.82
2017-05-23T07:02:40.476Z,19.78
2017-05-23T07:03:36.628Z,19.70
2017-05-23T07:04:32.962Z,19.75
2017-05-23T07:05:05.287Z,19.79
2017-05-23T07:06:47.076Z,19.77
2017-05-23T07:07:26.039Z,19.81
2017-05-23T07:07:52.700Z,19.86
2017-05-23T07:09:03.558Z,19.77
2017-05-23T07:09:32.931Z,19.76
2017-05-23T07:10:00.849Z,19.80
2017-05-23T07:11:08.765Z,19.91
2017-05-23T07:11:30.546Z,19.96
2017-05-23T07:12:33.457Z,20.11
2017-05-23T07:13:22.129Z,20.20
2017-05-23T07:16:22.718Z,19.92
2017-05-23T07:16:49.202Z,19.97
2017-05-23T07:17:20.445Z,20.05
2017-05-23T07:17:56.431Z,20.09
2017-05-23T07:18:56.218Z,20.12
2017-05-23T07:19:32.318Z,20.13
2017-05-23T07:20:21.983Z,20.11
2017-05-23T07:21:27.356Z,20.17
2017-05-23T07:22:18.787Z,20.21
2017-05-23T07:23:57.014Z,20.28
2017-05-23T07:24:22.363Z,20.26
2017-05-23T07:24:49.016Z,20.24
2017-05-23T07:25:16.101Z,20.13
2017-05-23T07:25:37.971Z,20.16
2017-05-23T07:27:06.585Z,20.06
2017-05-23T07:27:28.579Z,20.06
2017-05-23T07:27:53.289Z,20.09
2017-05-23T07:28:24.616Z,20.13
2017-05-23T07:28:49.047Z,20.04
2017-05-23T07:29:13.854Z,20.01
2017-05-23T07:29:38.340Z,20.00
2017-05-23T07:30:00.184Z,20.03
2017-05-23T07:31:44.953Z,20.13
2017-05-23T07:32:11.453Z,20.14
2017-05-23T07:33:45.956Z,20.24
2017-05-23T07:34:13.723Z,20.29
2017-05-23T07:34:35.567Z,20.33
2017-05-23T07:35:23.749Z,20.34
2017-05-23T07:35:45.514Z,20.36
2017-05-23T07:36:12.592Z,20.28
2017-05-23T07:37:35.110Z,20.13
2017-05-23T07:38:34.366Z,20.17
2017-05-23T07:39:01.270Z,20.19
2017-05-23T07:39:23.160Z,20.17
2017-05-23T07:39:44.834Z,20.15
2017-05-23T07:40:11.134Z,20.17
2017-05-23T07:41:14.455Z,20.24
2017-05-23T07:41:45.828Z,20.24
2017-05-23T07:42:07.754Z,20.26
2017-05-23T07:42:32.265Z,20.29
2017-05-23T07:42:53.970Z,20.22
2017-05-23T07:43:15.854Z,20.25
2017-05-23T07:43:38.574Z,20.22
2017-05-23T07:44:00.311Z,20.21
2017-05-23T07:44:22.081Z,20.21
2017-05-23T07:44:43.825Z,20.23
2017-05-23T07:45:05.893Z,20.27
2017-05-23T07:45:27.647Z,20.25
2017-05-23T07:45:49.435Z,20.27
2017-05-23T07:46:11.254Z,20.28
2017-05-23T07:46:32.994Z,20.28
2017-05-23T07:46:54.908Z,20.27
2017-05-23T07:47:21.522Z,20.29
2017-05-23T07:47:43.449Z,20.29
2017-05-23T07:48:05.143Z,20.31
2017-05-23T07:48:26.900Z,20.27
2017-05-23T07:48:53.436Z,20.14
2017-05-23T07:49:15.644Z,20.10
2017-05-23T07:50:21.382Z,20.18
2017-05-23T07:50:43.099Z,20.20
2017-05-23T07:51:17.219Z,20.28
2017-05-23T07:52:11.315Z,20.41
2017-05-23T07:53:13.862Z,20.44
2017-05-23T07:53:35.582Z,20.47
2017-05-23T07:53:57.340Z,20.49
2017-05-23T07:55:24.439Z,20.27
2017-05-23T07:55:53.595Z,20.22
2017-05-23T07:56:15.356Z,20.28
2017-05-23T07:57:12.808Z,20.31
2017-05-23T07:57:42.258Z,20.38
2017-05-23T07:59:19.389Z,20.55
2017-05-23T08:01:30.796Z,20.68
2017-05-23T08:01:52.550Z,20.68
2017-05-23T08:02:17.102Z,20.65
2017-05-23T08:03:11.469Z,20.67
2017-05-23T08:03:41.012Z,20.69
2017-05-23T08:04:02.902Z,20.67
2017-05-23T08:04:58.626Z,20.62
2017-05-23T08:05:20.331Z,20.63
2017-05-23T08:05:42.105Z,20.60
2017-05-23T08:06:03.811Z,20.51
2017-05-23T08:06:28.491Z,20.53
2017-05-23T08:06:54.857Z,20.56
2017-05-23T08:07:16.699Z,20.58
2017-05-23T08:07:38.704Z,20.59
2017-05-23T08:08:03.353Z,20.60
2017-05-23T08:09:06.683Z,20.67
2017-05-23T08:09:37.956Z,20.70
2017-05-23T08:10:00.426Z,20.73
2017-05-23T08:10:54.843Z,20.82
2017-05-23T08:12:55.684Z,20.87
2017-05-23T08:13:17.383Z,20.82
2017-05-23T08:13:42.204Z,20.80
2017-05-23T08:14:13.892Z,20.84
2017-05-23T08:14:44.196Z,20.90
2017-05-23T08:15:13.415Z,20.92
2017-05-23T08:15:35.224Z,20.89
2017-05-23T08:17:15.074Z,20.86
2017-05-23T08:18:36.055Z,20.76
2017-05-23T08:18:57.909Z,20.77
2017-05-23T08:20:00.573Z,20.74
2017-05-23T08:20:49.299Z,20.76
2017-05-23T08:21:20.718Z,20.77
2017-05-23T08:21:50.638Z,20.74
2017-05-23T08:22:12.623Z,20.68
2017-05-23T08:22:42.170Z,20.69
2017-05-23T08:23:08.651Z,20.67
2017-05-23T08:23:30.370Z,20.67
2017-05-23T08:23:52.241Z,20.70
2017-05-23T08:24:16.890Z,20.73
2017-05-23T08:24:49.135Z,20.77
2017-05-23T08:26:24.237Z,20.80
2017-05-23T08:26:52.121Z,20.80
2017-05-23T08:27:53.155Z,20.90
2017-05-23T08:29:38.421Z,21.06
2017-05-23T08:30:05.577Z,21.08
2017-05-23T08:30:27.253Z,21.09
2017-05-23T08:30:49.215Z,21.06
2017-05-23T08:31:37.891Z,21.05
2017-05-23T08:32:07.861Z,21.02
2017-05-23T08:32:38.301Z,21.03
2017-05-23T08:33:04.076Z,21.04
2017-05-23T08:33:38.200Z,21.07
2017-05-23T08:34:05.095Z,21.11
2017-05-23T08:34:31.885Z,21.19
2017-05-23T08:34:57.010Z,21.16
2017-05-23T08:36:29.912Z,21.23
2017-05-23T08:36:57.445Z,21.21
2017-05-23T08:37:22.873Z,21.21
2017-05-23T08:37:46.261Z,21.20
2017-05-23T08:38:15.792Z,21.19
2017-05-23T08:38:42.326Z,21.21
2017-05-23T08:39:07.377Z,21.24
2017-05-23T08:39:33.216Z,21.24
2017-05-23T08:42:09.280Z,21.15
2017-05-23T08:42:38.772Z,21.19
2017-05-23T08:43:05.705Z,21.18
2017-05-23T08:43:37.024Z,21.13
2017-05-23T08:44:13.145Z,21.04
2017-05-23T08:46:50.351Z,21.32
2017-05-23T08:47:15.339Z,21.33
2017-05-23T08:47:37.103Z,21.41
2017-05-23T08:48:08.467Z,21.44
2017-05-23T08:49:13.039Z,21.44
2017-05-23T08:50:15.680Z,21.46
2017-05-23T08:51:11.489Z,21.51
2017-05-23T08:53:58.941Z,21.74
2017-05-23T08:54:25.643Z,21.74
2017-05-23T08:54:58.209Z,21.75
2017-05-23T08:55:23.005Z,21.75
2017-05-23T08:55:47.710Z,21.75
2017-05-23T08:56:14.314Z,21.76
2017-05-23T08:56:36.430Z,21.76
2017-05-23T08:57:28.153Z,21.67
2017-05-23T08:57:52.658Z,21.61
2017-05-23T08:58:27.061Z,21.60
2017-05-23T08:58:58.434Z,21.61
2017-05-23T08:59:49.644Z,21.69
2017-05-23T09:00:42.932Z,21.58
2017-05-23T09:01:07.167Z,21.63
2017-05-23T09:02:10.938Z,21.65
2017-05-23T09:02:42.654Z,21.71